Arzamas, Russia
Current Conditions -  °F | °C
As of 4:00 AM on Wednesday 28 Jan 2015 (Local Time) from UWGG Reporting Station
Light Snow Light Snow  
Wind Chill:   Ceiling: 1300
Heat Index: 14°   Visibility: 4mi
Dew Point:   Wind: 9mph
Humidity: 79%   Direction: 190°S
Pressure: 30.06"   Gusts: NA
Location:  55.38°N, 43.82°E
Report Text: UWGG 280100Z 19004MPS 6000 -SN OVC013 M10/M13 Q1018 TEMPO 1200SHSN OVC004 SCT012CB 18490438 RMK QFE756
Loading
Personal Weather Stations






























Interactive Weather Map New forecast layout! Learn more

10-Day Weather Forecast

Advertisements
Track Severe Weather on mobile